Terminal Aerodrome Forecast
Issued by NWS

Home | Current Version | Previous Version | Text Only | Print | Product List | Glossary Off
Versions: 1 2 3 4 5 6 7 8 9 10 11 12 13 14 15 16 17 18 19 20

000
FTUS42 KMHX 241600 AAA
TAFPGV
TAF AMD
KPGV 241610Z 2416/2512 23010G15KT P6SM BKN020 OVC030
     FM241900 22013G20KT P6SM SCT025 BKN100
     FM242300 21008KT 5SM BR OVC010
     FM250600 22004KT 3SM BR OVC005
      AMD LTD TO CLD VIS AND WIND=

USA.gov is the U.S. government's official web portal to all federal, state and local government web resources and services.